Aeroporto :
LOGIN :

Iscrizione | Disclaimer

   EN    FR    IT 

 










Sommario :    VFR   VFR Marginale   IFR   IFR Intensivo   IFR Molto Intensivo
Visibilità : 
Base nubi : 
>= 8 km
>= 3000ft
5 / 8 km
1000 / 3000 ft
1500m / 5 km
500 / 1000 ft
800 / 1500m
200 / 500 ft
< 800m
< 200 ft
Simboli :   Temporali  Nebbia  Neve Forte  Precipitazioni Forti  Vento > 20 kt
SIGMETs :   Varie  Temporali  Ghiacco  Turbolenza  Onda orograficha  Ceneri Vulcaniche







- Altitudine del aeroporto : 1900 ft
- Codice IATA : FEZ


GMFF - Fez Saiss

ULTIMO METAR :
  • 230630Z 23016KT 9999 SCT020 BKN030 10/06 Q1021 NOSIG

METARs OBSOLETI :
  • 230600Z 23016KT 9999 SCT020 BKN030 09/07 Q1021 NOSIG
  • 230530Z 23015KT 9999 SCT016 BKN030 09/07 Q1021 NOSIG
  • 230500Z 24016KT 9999 SCT016 BKN030 09/07 Q1021 NOSIG
  • 230430Z 24014KT 9999 SCT016 BKN030 09/07 Q1022 NOSIG
  • 230400Z 24015KT 9999 -RA SCT016 BKN026 09/07 Q1022 NOSIG

TAF TAF GMFF
Valido dal 23 a 06 ore il 24 a 12 ore UTC


230500Z 2306/2412 26015G27KT 8000 RA SCT013 BKN026
TEMPO 2306/2312 SHRA SCT013 BKN026 FEW033CB
Nessun NOTAM noto per questo aeroporto.
3 SIGMETs conosciuti per la FIR Casablanca (GMMM) :
 
Turbolenza severa
GMMM SIGMET T2 VALID 230800/231200 GMMC
GMMM CASABLANCA FIR SEV TURB FCST E OF LINE N3548 W00455 - N3456 W00 218 SFC/FL080 STNR NC=
Turbolenza severa
GMMM SIGMET T1 VALID 230600/230800 GMMC
GMMM CASABLANCA FIR SEV TURB FCST N OF LINE N3503 W00247 - N3537 W00 448 SFC/FL080 STNR WKN=
Forte onda orograficha
GMMM SIGMET O1 VALID 230600/231000 GMMC
GMMM CASABLANCA FIR SEV MTW FCST E OF LINE N3545 W00525 - N3315 W004 36 - N3116 W00737 - N2951 W00542 SFC/FL160 STNR NC=



MetMap, La meteo Aeronautica in un colpo d'occhio ! - Copyright ORBIFLY Dicembre 2007 - Disclaimer

ORBIFLY MET'MAP TEAM :

Programmazione e sviluppo : Alexandra Zaïnal
Concezione e sviluppo : Baudouin d'Aumeries
Co-Programmazione e sviluppo : Marc-Olivier Méhu
Supporto tecnico e logistico : Manuel Goepfert
Aiuto per la traduzione : Arnaldo La Scala

Contatto : metmap@orbifly.com




FONTI E CREDITI :

   NOAA